sensor_id;sensor_type;location;lat;lon;timestamp;temperature;humidity
16102;DHT22;56411;52.964;10.540;2022-07-29T00:01:17;13.30;99.90
16102;DHT22;56411;52.964;10.540;2022-07-29T00:03:46;13.20;99.90
16102;DHT22;56411;52.964;10.540;2022-07-29T00:06:15;13.20;99.90
16102;DHT22;56411;52.964;10.540;2022-07-29T00:08:44;13.20;99.90
16102;DHT22;56411;52.964;10.540;2022-07-29T00:11:15;13.20;99.90
16102;DHT22;56411;52.964;10.540;2022-07-29T00:13:44;13.20;99.90
16102;DHT22;56411;52.964;10.540;2022-07-29T00:16:13;13.20;99.90
16102;DHT22;56411;52.964;10.540;2022-07-29T00:18:45;13.20;99.90
16102;DHT22;56411;52.964;10.540;2022-07-29T00:21:17;13.20;99.90
16102;DHT22;56411;52.964;10.540;2022-07-29T00:23:47;13.10;99.90
16102;DHT22;56411;52.964;10.540;2022-07-29T00:26:14;13.10;99.90
16102;DHT22;56411;52.964;10.540;2022-07-29T00:28:44;13.10;99.90
16102;DHT22;56411;52.964;10.540;2022-07-29T00:31:11;13.10;99.90
16102;DHT22;56411;52.964;10.540;2022-07-29T00:33:40;13.10;99.90
16102;DHT22;56411;52.964;10.540;2022-07-29T00:36:09;13.00;99.90
16102;DHT22;56411;52.964;10.540;2022-07-29T00:38:35;13.00;99.90
16102;DHT22;56411;52.964;10.540;2022-07-29T00:41:02;13.00;99.90
16102;DHT22;56411;52.964;10.540;2022-07-29T00:43:28;13.00;99.90
16102;DHT22;56411;52.964;10.540;2022-07-29T00:45:55;13.00;99.90
16102;DHT22;56411;52.964;10.540;2022-07-29T00:48:22;13.00;99.90
16102;DHT22;56411;52.964;10.540;2022-07-29T00:50:49;13.00;99.90
16102;DHT22;56411;52.964;10.540;2022-07-29T00:53:19;13.00;99.90
16102;DHT22;56411;52.964;10.540;2022-07-29T00:55:47;13.00;99.90
16102;DHT22;56411;52.964;10.540;2022-07-29T00:58:14;13.00;99.90
16102;DHT22;56411;52.964;10.540;2022-07-29T01:00:41;13.00;99.90
16102;DHT22;56411;52.964;10.540;2022-07-29T01:03:08;13.00;99.90
16102;DHT22;56411;52.964;10.540;2022-07-29T01:05:35;13.00;99.90
16102;DHT22;56411;52.964;10.540;2022-07-29T01:08:02;13.00;99.90
16102;DHT22;56411;52.964;10.540;2022-07-29T01:10:31;13.00;99.90
16102;DHT22;56411;52.964;10.540;2022-07-29T01:12:59;13.00;99.90
16102;DHT22;56411;52.964;10.540;2022-07-29T01:15:28;13.00;99.90
16102;DHT22;56411;52.964;10.540;2022-07-29T01:18:00;13.00;99.90
16102;DHT22;56411;52.964;10.540;2022-07-29T01:20:37;13.00;99.90
16102;DHT22;56411;52.964;10.540;2022-07-29T01:23:25;13.00;99.90
16102;DHT22;56411;52.964;10.540;2022-07-29T01:29:05;13.00;99.90
16102;DHT22;56411;52.964;10.540;2022-07-29T01:31:39;13.00;99.90
16102;DHT22;56411;52.964;10.540;2022-07-29T01:34:12;13.00;99.90
16102;DHT22;56411;52.964;10.540;2022-07-29T01:36:44;13.00;99.90
16102;DHT22;56411;52.964;10.540;2022-07-29T01:39:16;13.00;99.90
16102;DHT22;56411;52.964;10.540;2022-07-29T01:41:51;13.00;99.90
16102;DHT22;56411;52.964;10.540;2022-07-29T01:44:29;13.00;99.90
16102;DHT22;56411;52.964;10.540;2022-07-29T01:47:00;13.00;99.90
16102;DHT22;56411;52.964;10.540;2022-07-29T01:49:31;13.00;99.90
16102;DHT22;56411;52.964;10.540;2022-07-29T01:52:13;13.00;99.90
16102;DHT22;56411;52.964;10.540;2022-07-29T01:54:44;13.00;99.90
16102;DHT22;56411;52.964;10.540;2022-07-29T01:57:14;13.00;99.90
16102;DHT22;56411;52.964;10.540;2022-07-29T01:59:46;13.00;99.90
16102;DHT22;56411;52.964;10.540;2022-07-29T02:02:15;13.00;99.90
16102;DHT22;56411;52.964;10.540;2022-07-29T02:04:43;13.00;99.90
16102;DHT22;56411;52.964;10.540;2022-07-29T02:07:17;13.00;99.90
16102;DHT22;56411;52.964;10.540;2022-07-29T02:09:46;13.00;99.90
16102;DHT22;56411;52.964;10.540;2022-07-29T02:12:14;13.00;99.90
16102;DHT22;56411;52.964;10.540;2022-07-29T02:14:47;13.00;99.90
16102;DHT22;56411;52.964;10.540;2022-07-29T02:17:21;13.00;99.90
16102;DHT22;56411;52.964;10.540;2022-07-29T02:19:50;12.90;99.90
16102;DHT22;56411;52.964;10.540;2022-07-29T02:22:18;12.90;99.90
16102;DHT22;56411;52.964;10.540;2022-07-29T02:24:47;13.00;99.90
16102;DHT22;56411;52.964;10.540;2022-07-29T02:27:16;13.00;99.90
16102;DHT22;56411;52.964;10.540;2022-07-29T02:29:46;13.00;99.90
16102;DHT22;56411;52.964;10.540;2022-07-29T02:32:14;13.00;99.90
16102;DHT22;56411;52.964;10.540;2022-07-29T02:34:43;13.00;99.90
16102;DHT22;56411;52.964;10.540;2022-07-29T02:37:10;13.00;99.90
16102;DHT22;56411;52.964;10.540;2022-07-29T02:39:40;13.00;99.90
16102;DHT22;56411;52.964;10.540;2022-07-29T02:42:10;13.00;99.90
16102;DHT22;56411;52.964;10.540;2022-07-29T02:44:38;13.00;99.90
16102;DHT22;56411;52.964;10.540;2022-07-29T02:47:10;13.00;99.90
16102;DHT22;56411;52.964;10.540;2022-07-29T02:49:42;13.00;99.90
16102;DHT22;56411;52.964;10.540;2022-07-29T02:52:19;13.00;99.90
16102;DHT22;56411;52.964;10.540;2022-07-29T02:54:53;12.90;99.90
16102;DHT22;56411;52.964;10.540;2022-07-29T02:57:22;12.90;99.90
16102;DHT22;56411;52.964;10.540;2022-07-29T02:59:53;12.90;99.90
16102;DHT22;56411;52.964;10.540;2022-07-29T03:02:25;12.90;99.90
16102;DHT22;56411;52.964;10.540;2022-07-29T03:04:54;12.80;99.90
16102;DHT22;56411;52.964;10.540;2022-07-29T03:07:22;12.80;99.90
16102;DHT22;56411;52.964;10.540;2022-07-29T03:09:49;12.80;99.90
16102;DHT22;56411;52.964;10.540;2022-07-29T03:12:17;12.70;99.90
16102;DHT22;56411;52.964;10.540;2022-07-29T03:14:45;12.70;99.90
16102;DHT22;56411;52.964;10.540;2022-07-29T03:17:13;12.60;99.90
16102;DHT22;56411;52.964;10.540;2022-07-29T03:19:42;12.70;99.90
16102;DHT22;56411;52.964;10.540;2022-07-29T03:22:09;12.70;99.90
16102;DHT22;56411;52.964;10.540;2022-07-29T03:24:37;12.70;99.90
16102;DHT22;56411;52.964;10.540;2022-07-29T03:27:04;12.80;99.90
16102;DHT22;56411;52.964;10.540;2022-07-29T03:29:32;12.80;99.90
16102;DHT22;56411;52.964;10.540;2022-07-29T03:31:59;12.70;99.90
16102;DHT22;56411;52.964;10.540;2022-07-29T03:34:25;12.70;99.90
16102;DHT22;56411;52.964;10.540;2022-07-29T03:36:54;12.80;99.90
16102;DHT22;56411;52.964;10.540;2022-07-29T03:39:24;12.80;99.90
16102;DHT22;56411;52.964;10.540;2022-07-29T03:41:54;12.80;99.90
16102;DHT22;56411;52.964;10.540;2022-07-29T03:44:22;12.80;99.90
16102;DHT22;56411;52.964;10.540;2022-07-29T03:46:50;12.80;99.90
16102;DHT22;56411;52.964;10.540;2022-07-29T03:49:18;12.80;99.90
16102;DHT22;56411;52.964;10.540;2022-07-29T03:51:46;12.90;99.90
16102;DHT22;56411;52.964;10.540;2022-07-29T03:54:14;12.90;99.90
16102;DHT22;56411;52.964;10.540;2022-07-29T03:56:43;12.90;99.90
16102;DHT22;56411;52.964;10.540;2022-07-29T03:59:13;13.00;99.90
16102;DHT22;56411;52.964;10.540;2022-07-29T04:01:41;13.00;99.90
16102;DHT22;56411;52.964;10.540;2022-07-29T04:04:08;13.00;99.90
16102;DHT22;56411;52.964;10.540;2022-07-29T04:06:39;13.10;99.90
16102;DHT22;56411;52.964;10.540;2022-07-29T04:09:06;13.10;99.90
16102;DHT22;56411;52.964;10.540;2022-07-29T04:11:36;13.10;99.90
16102;DHT22;56411;52.964;10.540;2022-07-29T04:14:03;13.20;99.90
16102;DHT22;56411;52.964;10.540;2022-07-29T04:16:30;13.10;99.90
16102;DHT22;56411;52.964;10.540;2022-07-29T04:18:57;13.20;99.90
16102;DHT22;56411;52.964;10.540;2022-07-29T04:21:24;13.20;99.90
16102;DHT22;56411;52.964;10.540;2022-07-29T04:23:51;13.20;99.90
16102;DHT22;56411;52.964;10.540;2022-07-29T04:26:18;13.30;99.90
16102;DHT22;56411;52.964;10.540;2022-07-29T04:28:47;13.30;99.90
16102;DHT22;56411;52.964;10.540;2022-07-29T04:31:14;13.40;99.90
16102;DHT22;56411;52.964;10.540;2022-07-29T04:33:41;13.40;99.90
16102;DHT22;56411;52.964;10.540;2022-07-29T04:36:07;13.40;99.90
16102;DHT22;56411;52.964;10.540;2022-07-29T04:38:36;13.50;99.90
16102;DHT22;56411;52.964;10.540;2022-07-29T04:41:03;13.50;99.90
16102;DHT22;56411;52.964;10.540;2022-07-29T04:43:30;13.50;99.90
16102;DHT22;56411;52.964;10.540;2022-07-29T04:45:58;13.60;99.90
16102;DHT22;56411;52.964;10.540;2022-07-29T04:48:25;13.60;99.90
16102;DHT22;56411;52.964;10.540;2022-07-29T04:50:52;13.70;99.90
16102;DHT22;56411;52.964;10.540;2022-07-29T04:53:19;13.70;99.90
16102;DHT22;56411;52.964;10.540;2022-07-29T04:55:46;13.70;99.90
16102;DHT22;56411;52.964;10.540;2022-07-29T04:58:13;13.80;99.90
16102;DHT22;56411;52.964;10.540;2022-07-29T05:00:41;13.80;99.90
16102;DHT22;56411;52.964;10.540;2022-07-29T05:03:09;13.80;99.90
16102;DHT22;56411;52.964;10.540;2022-07-29T05:05:36;13.80;99.90
16102;DHT22;56411;52.964;10.540;2022-07-29T05:08:03;13.80;99.90
16102;DHT22;56411;52.964;10.540;2022-07-29T05:10:30;13.90;99.90
16102;DHT22;56411;52.964;10.540;2022-07-29T05:12:58;14.00;99.90
16102;DHT22;56411;52.964;10.540;2022-07-29T05:15:25;14.00;99.90
16102;DHT22;56411;52.964;10.540;2022-07-29T05:17:52;14.10;99.90
16102;DHT22;56411;52.964;10.540;2022-07-29T05:20:20;14.10;99.90
16102;DHT22;56411;52.964;10.540;2022-07-29T05:22:51;14.20;99.90
16102;DHT22;56411;52.964;10.540;2022-07-29T05:25:18;14.30;99.90
16102;DHT22;56411;52.964;10.540;2022-07-29T05:27:45;14.30;99.90
16102;DHT22;56411;52.964;10.540;2022-07-29T05:30:12;14.30;99.90
16102;DHT22;56411;52.964;10.540;2022-07-29T05:32:39;14.30;99.90
16102;DHT22;56411;52.964;10.540;2022-07-29T05:35:07;14.40;99.90
16102;DHT22;56411;52.964;10.540;2022-07-29T05:37:35;14.40;99.90
16102;DHT22;56411;52.964;10.540;2022-07-29T05:40:03;14.50;99.90
16102;DHT22;56411;52.964;10.540;2022-07-29T05:42:30;14.50;99.90
16102;DHT22;56411;52.964;10.540;2022-07-29T05:44:57;14.60;99.90
16102;DHT22;56411;52.964;10.540;2022-07-29T05:47:24;14.60;99.90
16102;DHT22;56411;52.964;10.540;2022-07-29T05:49:53;14.60;99.90
16102;DHT22;56411;52.964;10.540;2022-07-29T05:52:20;14.60;99.90
16102;DHT22;56411;52.964;10.540;2022-07-29T05:54:51;14.70;99.90
16102;DHT22;56411;52.964;10.540;2022-07-29T05:57:18;14.80;99.90
16102;DHT22;56411;52.964;10.540;2022-07-29T05:59:45;14.80;99.90
16102;DHT22;56411;52.964;10.540;2022-07-29T06:02:13;14.90;99.90
16102;DHT22;56411;52.964;10.540;2022-07-29T06:04:40;14.90;99.90
16102;DHT22;56411;52.964;10.540;2022-07-29T06:07:07;15.00;99.90
16102;DHT22;56411;52.964;10.540;2022-07-29T06:09:34;15.10;99.90
16102;DHT22;56411;52.964;10.540;2022-07-29T06:12:03;15.10;99.90
16102;DHT22;56411;52.964;10.540;2022-07-29T06:14:30;15.20;99.90
16102;DHT22;56411;52.964;10.540;2022-07-29T06:16:58;15.20;99.90
16102;DHT22;56411;52.964;10.540;2022-07-29T06:19:25;15.30;99.90
16102;DHT22;56411;52.964;10.540;2022-07-29T06:21:52;15.40;99.90
16102;DHT22;56411;52.964;10.540;2022-07-29T06:24:18;15.50;99.90
16102;DHT22;56411;52.964;10.540;2022-07-29T06:26:45;15.50;99.90
16102;DHT22;56411;52.964;10.540;2022-07-29T06:29:14;15.60;99.90
16102;DHT22;56411;52.964;10.540;2022-07-29T06:31:45;15.70;99.90
16102;DHT22;56411;52.964;10.540;2022-07-29T06:34:15;15.80;99.90
16102;DHT22;56411;52.964;10.540;2022-07-29T06:36:42;15.90;99.90
16102;DHT22;56411;52.964;10.540;2022-07-29T06:39:09;16.00;99.90
16102;DHT22;56411;52.964;10.540;2022-07-29T06:41:36;16.10;99.90
16102;DHT22;56411;52.964;10.540;2022-07-29T06:44:03;16.20;99.90
16102;DHT22;56411;52.964;10.540;2022-07-29T06:46:32;16.20;99.90
16102;DHT22;56411;52.964;10.540;2022-07-29T06:48:59;16.20;99.90
16102;DHT22;56411;52.964;10.540;2022-07-29T06:51:27;16.30;99.90
16102;DHT22;56411;52.964;10.540;2022-07-29T06:53:54;16.30;99.90
16102;DHT22;56411;52.964;10.540;2022-07-29T06:56:21;16.40;99.90
16102;DHT22;56411;52.964;10.540;2022-07-29T06:58:48;16.50;99.90
16102;DHT22;56411;52.964;10.540;2022-07-29T07:01:15;16.60;99.90
16102;DHT22;56411;52.964;10.540;2022-07-29T07:03:43;16.60;99.90
16102;DHT22;56411;52.964;10.540;2022-07-29T07:06:10;16.70;99.90
16102;DHT22;56411;52.964;10.540;2022-07-29T07:08:37;16.80;99.90
16102;DHT22;56411;52.964;10.540;2022-07-29T07:11:04;16.90;99.90
16102;DHT22;56411;52.964;10.540;2022-07-29T07:13:32;17.00;99.90
16102;DHT22;56411;52.964;10.540;2022-07-29T07:16:00;17.10;99.90
16102;DHT22;56411;52.964;10.540;2022-07-29T07:18:27;17.20;99.90
16102;DHT22;56411;52.964;10.540;2022-07-29T07:20:57;17.30;99.90
16102;DHT22;56411;52.964;10.540;2022-07-29T07:23:24;17.40;99.90
16102;DHT22;56411;52.964;10.540;2022-07-29T07:25:51;17.50;99.90
16102;DHT22;56411;52.964;10.540;2022-07-29T07:28:18;17.60;99.90
16102;DHT22;56411;52.964;10.540;2022-07-29T07:30:51;17.70;99.90
16102;DHT22;56411;52.964;10.540;2022-07-29T07:33:18;17.90;99.90
16102;DHT22;56411;52.964;10.540;2022-07-29T07:35:45;18.00;99.90
16102;DHT22;56411;52.964;10.540;2022-07-29T07:38:13;18.10;99.90
16102;DHT22;56411;52.964;10.540;2022-07-29T07:40:40;18.20;99.90
16102;DHT22;56411;52.964;10.540;2022-07-29T07:43:08;18.30;99.90
16102;DHT22;56411;52.964;10.540;2022-07-29T07:45:35;18.40;99.90
16102;DHT22;56411;52.964;10.540;2022-07-29T07:48:03;18.50;99.90
16102;DHT22;56411;52.964;10.540;2022-07-29T07:50:30;18.50;99.90
16102;DHT22;56411;52.964;10.540;2022-07-29T07:52:57;18.60;99.90
16102;DHT22;56411;52.964;10.540;2022-07-29T07:55:26;18.70;99.90
16102;DHT22;56411;52.964;10.540;2022-07-29T07:57:53;18.70;99.90
16102;DHT22;56411;52.964;10.540;2022-07-29T08:00:20;18.80;99.90
16102;DHT22;56411;52.964;10.540;2022-07-29T08:02:47;18.90;99.90
16102;DHT22;56411;52.964;10.540;2022-07-29T08:05:15;19.00;99.90
16102;DHT22;56411;52.964;10.540;2022-07-29T08:07:44;19.00;99.90
16102;DHT22;56411;52.964;10.540;2022-07-29T08:10:12;19.10;99.90
16102;DHT22;56411;52.964;10.540;2022-07-29T08:12:41;19.20;99.90
16102;DHT22;56411;52.964;10.540;2022-07-29T08:15:08;19.30;99.90
16102;DHT22;56411;52.964;10.540;2022-07-29T08:17:35;19.40;99.90
16102;DHT22;56411;52.964;10.540;2022-07-29T08:20:03;19.50;99.90
16102;DHT22;56411;52.964;10.540;2022-07-29T08:22:31;19.60;99.90
16102;DHT22;56411;52.964;10.540;2022-07-29T08:24:58;19.70;99.90
16102;DHT22;56411;52.964;10.540;2022-07-29T08:27:25;19.80;99.90
16102;DHT22;56411;52.964;10.540;2022-07-29T08:29:56;19.90;99.90
16102;DHT22;56411;52.964;10.540;2022-07-29T08:32:24;19.90;99.90
16102;DHT22;56411;52.964;10.540;2022-07-29T08:34:51;20.00;99.90
16102;DHT22;56411;52.964;10.540;2022-07-29T08:37:18;20.00;99.90
16102;DHT22;56411;52.964;10.540;2022-07-29T08:39:45;20.20;99.90
16102;DHT22;56411;52.964;10.540;2022-07-29T08:42:11;20.20;99.90
16102;DHT22;56411;52.964;10.540;2022-07-29T08:44:39;20.40;99.90
16102;DHT22;56411;52.964;10.540;2022-07-29T08:47:07;20.40;99.90
16102;DHT22;56411;52.964;10.540;2022-07-29T08:49:35;20.50;99.90
16102;DHT22;56411;52.964;10.540;2022-07-29T08:52:02;20.70;99.90
16102;DHT22;56411;52.964;10.540;2022-07-29T08:54:30;20.80;99.90
16102;DHT22;56411;52.964;10.540;2022-07-29T08:56:59;20.80;99.90
16102;DHT22;56411;52.964;10.540;2022-07-29T08:59:27;20.90;99.90
16102;DHT22;56411;52.964;10.540;2022-07-29T09:01:54;21.00;99.90
16102;DHT22;56411;52.964;10.540;2022-07-29T09:04:29;21.00;99.90
16102;DHT22;56411;52.964;10.540;2022-07-29T09:07:00;21.10;99.90
16102;DHT22;56411;52.964;10.540;2022-07-29T09:09:33;21.20;99.90
16102;DHT22;56411;52.964;10.540;2022-07-29T09:12:03;21.20;99.90
16102;DHT22;56411;52.964;10.540;2022-07-29T09:14:31;21.30;99.90
16102;DHT22;56411;52.964;10.540;2022-07-29T09:16:58;21.30;99.90
16102;DHT22;56411;52.964;10.540;2022-07-29T09:19:30;21.50;99.90
16102;DHT22;56411;52.964;10.540;2022-07-29T09:22:00;21.50;99.90
16102;DHT22;56411;52.964;10.540;2022-07-29T09:24:36;21.60;99.90
16102;DHT22;56411;52.964;10.540;2022-07-29T09:27:09;21.70;99.90
16102;DHT22;56411;52.964;10.540;2022-07-29T09:29:36;21.80;99.90
16102;DHT22;56411;52.964;10.540;2022-07-29T09:32:08;21.90;99.90
16102;DHT22;56411;52.964;10.540;2022-07-29T09:34:37;21.90;99.90
16102;DHT22;56411;52.964;10.540;2022-07-29T09:37:04;22.00;99.90
16102;DHT22;56411;52.964;10.540;2022-07-29T09:39:33;22.00;99.90
16102;DHT22;56411;52.964;10.540;2022-07-29T09:42:01;22.10;99.90
16102;DHT22;56411;52.964;10.540;2022-07-29T09:44:43;22.10;99.90
16102;DHT22;56411;52.964;10.540;2022-07-29T09:47:10;22.20;99.90
16102;DHT22;56411;52.964;10.540;2022-07-29T09:49:54;22.30;99.90
16102;DHT22;56411;52.964;10.540;2022-07-29T09:52:29;22.30;99.90
16102;DHT22;56411;52.964;10.540;2022-07-29T09:55:07;22.30;99.90
16102;DHT22;56411;52.964;10.540;2022-07-29T09:57:34;22.40;99.90
16102;DHT22;56411;52.964;10.540;2022-07-29T10:00:07;22.50;99.90
16102;DHT22;56411;52.964;10.540;2022-07-29T10:02:36;22.60;99.90
16102;DHT22;56411;52.964;10.540;2022-07-29T10:05:06;22.90;99.90
16102;DHT22;56411;52.964;10.540;2022-07-29T10:07:45;23.00;99.90
16102;DHT22;56411;52.964;10.540;2022-07-29T10:10:20;23.00;99.90
16102;DHT22;56411;52.964;10.540;2022-07-29T10:12:52;23.20;99.90
16102;DHT22;56411;52.964;10.540;2022-07-29T10:15:22;23.40;99.90
16102;DHT22;56411;52.964;10.540;2022-07-29T10:17:49;23.50;99.90
16102;DHT22;56411;52.964;10.540;2022-07-29T10:20:18;23.60;99.90
16102;DHT22;56411;52.964;10.540;2022-07-29T10:22:47;23.50;99.90
16102;DHT22;56411;52.964;10.540;2022-07-29T10:25:15;23.50;99.90
16102;DHT22;56411;52.964;10.540;2022-07-29T10:27:43;23.70;99.90
16102;DHT22;56411;52.964;10.540;2022-07-29T10:30:12;23.80;99.90
16102;DHT22;56411;52.964;10.540;2022-07-29T10:32:53;23.90;99.90
16102;DHT22;56411;52.964;10.540;2022-07-29T10:35:44;24.20;99.90
16102;DHT22;56411;52.964;10.540;2022-07-29T10:38:45;24.50;99.90
16102;DHT22;56411;52.964;10.540;2022-07-29T10:41:33;24.70;99.90
16102;DHT22;56411;52.964;10.540;2022-07-29T10:44:09;24.90;99.90
16102;DHT22;56411;52.964;10.540;2022-07-29T10:46:40;25.00;99.90
16102;DHT22;56411;52.964;10.540;2022-07-29T10:49:09;25.10;99.90
16102;DHT22;56411;52.964;10.540;2022-07-29T10:51:55;25.20;99.90
16102;DHT22;56411;52.964;10.540;2022-07-29T10:54:43;25.30;99.90
16102;DHT22;56411;52.964;10.540;2022-07-29T10:57:14;25.40;99.90
16102;DHT22;56411;52.964;10.540;2022-07-29T10:59:46;25.80;99.90
16102;DHT22;56411;52.964;10.540;2022-07-29T11:02:44;26.20;99.90
16102;DHT22;56411;52.964;10.540;2022-07-29T11:05:14;26.30;99.90
16102;DHT22;56411;52.964;10.540;2022-07-29T11:10:44;25.80;99.90
16102;DHT22;56411;52.964;10.540;2022-07-29T11:13:12;25.60;99.90
16102;DHT22;56411;52.964;10.540;2022-07-29T11:15:54;25.60;99.90
16102;DHT22;56411;52.964;10.540;2022-07-29T11:18:21;25.60;99.90
16102;DHT22;56411;52.964;10.540;2022-07-29T11:20:49;25.60;99.90
16102;DHT22;56411;52.964;10.540;2022-07-29T11:23:20;25.70;99.90
16102;DHT22;56411;52.964;10.540;2022-07-29T11:26:15;25.80;99.90
16102;DHT22;56411;52.964;10.540;2022-07-29T11:29:02;25.80;99.90
16102;DHT22;56411;52.964;10.540;2022-07-29T11:31:37;25.90;99.90
16102;DHT22;56411;52.964;10.540;2022-07-29T11:34:24;25.80;99.90
16102;DHT22;56411;52.964;10.540;2022-07-29T11:37:20;25.80;99.90
16102;DHT22;56411;52.964;10.540;2022-07-29T11:40:10;25.90;99.70
16102;DHT22;56411;52.964;10.540;2022-07-29T11:42:45;26.00;99.50
16102;DHT22;56411;52.964;10.540;2022-07-29T11:45:17;26.10;99.40
16102;DHT22;56411;52.964;10.540;2022-07-29T11:51:33;26.60;98.10
16102;DHT22;56411;52.964;10.540;2022-07-29T17:15:53;31.80;63.70
16102;DHT22;56411;52.964;10.540;2022-07-29T17:18:53;31.60;64.10
16102;DHT22;56411;52.964;10.540;2022-07-29T17:25:04;31.60;64.50
16102;DHT22;56411;52.964;10.540;2022-07-29T17:27:32;31.60;64.40
16102;DHT22;56411;52.964;10.540;2022-07-29T17:29:59;31.50;64.10
16102;DHT22;56411;52.964;10.540;2022-07-29T17:32:28;31.30;64.70
16102;DHT22;56411;52.964;10.540;2022-07-29T17:34:55;31.10;65.30
16102;DHT22;56411;52.964;10.540;2022-07-29T17:37:22;30.90;65.00
16102;DHT22;56411;52.964;10.540;2022-07-29T17:39:53;30.80;65.00
16102;DHT22;56411;52.964;10.540;2022-07-29T17:42:20;30.60;65.40
16102;DHT22;56411;52.964;10.540;2022-07-29T17:44:47;30.30;65.50
16102;DHT22;56411;52.964;10.540;2022-07-29T17:47:14;29.90;66.10
16102;DHT22;56411;52.964;10.540;2022-07-29T17:49:43;29.50;66.60
16102;DHT22;56411;52.964;10.540;2022-07-29T17:52:10;29.20;67.20
16102;DHT22;56411;52.964;10.540;2022-07-29T17:54:46;28.90;67.60
16102;DHT22;56411;52.964;10.540;2022-07-29T17:57:18;28.60;68.70
16102;DHT22;56411;52.964;10.540;2022-07-29T17:59:45;28.40;69.00
16102;DHT22;56411;52.964;10.540;2022-07-29T18:02:12;28.20;69.40
16102;DHT22;56411;52.964;10.540;2022-07-29T18:04:40;28.00;70.50
16102;DHT22;56411;52.964;10.540;2022-07-29T18:07:08;27.80;70.60
16102;DHT22;56411;52.964;10.540;2022-07-29T18:09:36;27.60;71.30
16102;DHT22;56411;52.964;10.540;2022-07-29T18:12:03;27.40;71.00
16102;DHT22;56411;52.964;10.540;2022-07-29T18:14:30;27.20;71.60
16102;DHT22;56411;52.964;10.540;2022-07-29T18:16:58;27.00;72.00
16102;DHT22;56411;52.964;10.540;2022-07-29T18:19:25;26.80;72.40
16102;DHT22;56411;52.964;10.540;2022-07-29T18:22:04;26.60;72.50
16102;DHT22;56411;52.964;10.540;2022-07-29T18:24:58;26.40;73.10
16102;DHT22;56411;52.964;10.540;2022-07-29T18:27:46;26.10;73.80
16102;DHT22;56411;52.964;10.540;2022-07-29T18:33:30;25.70;74.70
16102;DHT22;56411;52.964;10.540;2022-07-29T18:36:09;25.50;75.00
16102;DHT22;56411;52.964;10.540;2022-07-29T18:38:45;25.30;75.60
16102;DHT22;56411;52.964;10.540;2022-07-29T18:44:54;25.00;76.00
16102;DHT22;56411;52.964;10.540;2022-07-29T18:47:38;24.80;76.90
16102;DHT22;56411;52.964;10.540;2022-07-29T18:50:15;24.70;77.30
16102;DHT22;56411;52.964;10.540;2022-07-29T18:53:09;24.60;77.70
16102;DHT22;56411;52.964;10.540;2022-07-29T18:59:07;24.30;79.60
16102;DHT22;56411;52.964;10.540;2022-07-29T19:02:20;24.10;80.90
16102;DHT22;56411;52.964;10.540;2022-07-29T19:04:53;24.00;81.60
16102;DHT22;56411;52.964;10.540;2022-07-29T19:07:21;23.90;81.90
16102;DHT22;56411;52.964;10.540;2022-07-29T19:09:50;23.80;82.40
16102;DHT22;56411;52.964;10.540;2022-07-29T19:12:17;23.70;82.70
16102;DHT22;56411;52.964;10.540;2022-07-29T19:14:44;23.60;83.40
16102;DHT22;56411;52.964;10.540;2022-07-29T19:17:11;23.50;83.80
16102;DHT22;56411;52.964;10.540;2022-07-29T19:19:40;23.50;84.10
16102;DHT22;56411;52.964;10.540;2022-07-29T19:22:07;23.40;84.70
16102;DHT22;56411;52.964;10.540;2022-07-29T19:24:34;23.40;85.00
16102;DHT22;56411;52.964;10.540;2022-07-29T19:27:01;23.40;85.70
16102;DHT22;56411;52.964;10.540;2022-07-29T19:29:28;23.30;86.50
16102;DHT22;56411;52.964;10.540;2022-07-29T19:31:57;23.30;87.30
16102;DHT22;56411;52.964;10.540;2022-07-29T19:34:26;23.20;87.80
16102;DHT22;56411;52.964;10.540;2022-07-29T19:36:54;23.10;90.60
16102;DHT22;56411;52.964;10.540;2022-07-29T19:39:21;23.10;91.80
16102;DHT22;56411;52.964;10.540;2022-07-29T19:41:48;23.00;92.80
16102;DHT22;56411;52.964;10.540;2022-07-29T19:44:15;22.90;94.10
16102;DHT22;56411;52.964;10.540;2022-07-29T19:46:42;22.80;95.20
16102;DHT22;56411;52.964;10.540;2022-07-29T19:49:10;22.80;96.50
16102;DHT22;56411;52.964;10.540;2022-07-29T19:51:38;22.70;97.70
16102;DHT22;56411;52.964;10.540;2022-07-29T19:54:07;22.60;98.80
16102;DHT22;56411;52.964;10.540;2022-07-29T19:56:34;22.50;99.80
16102;DHT22;56411;52.964;10.540;2022-07-29T19:59:04;22.40;99.90
16102;DHT22;56411;52.964;10.540;2022-07-29T20:01:31;22.40;99.90
16102;DHT22;56411;52.964;10.540;2022-07-29T20:04:01;22.40;99.90
16102;DHT22;56411;52.964;10.540;2022-07-29T20:06:28;22.30;99.90
16102;DHT22;56411;52.964;10.540;2022-07-29T20:09:18;22.20;99.90
16102;DHT22;56411;52.964;10.540;2022-07-29T20:12:10;22.10;99.90
16102;DHT22;56411;52.964;10.540;2022-07-29T20:14:40;22.10;99.90
16102;DHT22;56411;52.964;10.540;2022-07-29T20:17:09;22.00;99.90
16102;DHT22;56411;52.964;10.540;2022-07-29T20:19:36;22.00;99.90
16102;DHT22;56411;52.964;10.540;2022-07-29T20:22:03;21.90;99.90
16102;DHT22;56411;52.964;10.540;2022-07-29T20:24:31;21.90;99.90
16102;DHT22;56411;52.964;10.540;2022-07-29T20:26:58;21.90;99.90
16102;DHT22;56411;52.964;10.540;2022-07-29T20:29:26;21.80;99.90
16102;DHT22;56411;52.964;10.540;2022-07-29T20:31:53;21.80;99.90
16102;DHT22;56411;52.964;10.540;2022-07-29T20:34:20;21.70;99.90
16102;DHT22;56411;52.964;10.540;2022-07-29T20:36:50;21.70;99.90
16102;DHT22;56411;52.964;10.540;2022-07-29T20:39:17;21.60;99.90
16102;DHT22;56411;52.964;10.540;2022-07-29T20:41:49;21.50;99.90
16102;DHT22;56411;52.964;10.540;2022-07-29T20:44:30;21.50;99.90
16102;DHT22;56411;52.964;10.540;2022-07-29T20:47:04;21.50;99.90
16102;DHT22;56411;52.964;10.540;2022-07-29T20:49:31;21.40;99.90
16102;DHT22;56411;52.964;10.540;2022-07-29T20:52:01;21.30;99.90
16102;DHT22;56411;52.964;10.540;2022-07-29T20:54:41;21.30;99.90
16102;DHT22;56411;52.964;10.540;2022-07-29T20:57:15;21.30;99.90
16102;DHT22;56411;52.964;10.540;2022-07-29T20:59:42;21.20;99.90
16102;DHT22;56411;52.964;10.540;2022-07-29T21:02:12;21.20;99.90
16102;DHT22;56411;52.964;10.540;2022-07-29T21:04:41;21.00;99.90
16102;DHT22;56411;52.964;10.540;2022-07-29T21:07:09;21.00;99.90
16102;DHT22;56411;52.964;10.540;2022-07-29T21:09:39;20.90;99.90
16102;DHT22;56411;52.964;10.540;2022-07-29T21:12:19;20.90;99.90
16102;DHT22;56411;52.964;10.540;2022-07-29T21:14:47;20.80;99.90
16102;DHT22;56411;52.964;10.540;2022-07-29T21:17:14;20.80;99.90
16102;DHT22;56411;52.964;10.540;2022-07-29T21:19:43;20.70;99.90